createdAt,value
2019-05-01T00:01:14.667Z,37.50
2019-05-01T00:03:51.043Z,38.43
2019-05-01T00:06:21.433Z,37.73
2019-05-01T00:08:50.216Z,39.83
2019-05-01T00:11:19.034Z,39.67
2019-05-01T00:13:47.838Z,40.50
2019-05-01T00:16:16.591Z,39.30
2019-05-01T00:18:45.328Z,41.23
2019-05-01T00:21:14.686Z,40.60
2019-05-01T00:23:43.416Z,41.50
2019-05-01T00:26:12.112Z,42.97
2019-05-01T00:28:40.903Z,42.10
2019-05-01T00:31:09.668Z,41.13
2019-05-01T00:33:38.414Z,41.57
2019-05-01T00:36:07.112Z,41.90
2019-05-01T00:38:35.814Z,39.10
2019-05-01T00:41:04.594Z,40.93
2019-05-01T00:43:33.357Z,40.23
2019-05-01T00:46:02.134Z,41.93
2019-05-01T00:48:30.758Z,38.83
2019-05-01T00:50:59.548Z,39.90
2019-05-01T00:53:28.413Z,38.10
2019-05-01T00:56:07.739Z,39.07
2019-05-01T00:58:54.805Z,38.87
2019-05-01T01:01:28.105Z,38.80
2019-05-01T01:03:56.949Z,42.07
2019-05-01T01:06:30.813Z,40.70
2019-05-01T01:08:59.538Z,40.57
2019-05-01T01:11:28.323Z,40.73
2019-05-01T01:13:57.051Z,38.87
2019-05-01T01:16:25.811Z,41.20
2019-05-01T01:18:54.496Z,40.73
2019-05-01T01:21:23.267Z,42.17
2019-05-01T01:23:52.162Z,39.73
2019-05-01T01:26:20.937Z,43.07
2019-05-01T01:28:49.737Z,41.50
2019-05-01T01:31:18.509Z,40.80
2019-05-01T01:33:47.306Z,40.67
2019-05-01T01:36:16.068Z,41.47
2019-05-01T01:38:44.799Z,41.27
2019-05-01T01:41:13.679Z,40.17
2019-05-01T01:43:46.973Z,40.83
2019-05-01T01:46:17.388Z,39.27
2019-05-01T01:48:46.245Z,39.17
2019-05-01T01:51:15.031Z,40.53
2019-05-01T01:53:43.895Z,40.63
2019-05-01T01:56:12.726Z,41.13
2019-05-01T01:58:41.569Z,40.43
2019-05-01T02:01:29.548Z,40.13
2019-05-01T02:03:59.961Z,41.67
2019-05-01T02:06:28.755Z,40.40
2019-05-01T02:08:57.537Z,40.70
2019-05-01T02:11:26.744Z,39.30
2019-05-01T02:13:56.203Z,41.40
2019-05-01T02:16:49.886Z,40.07
2019-05-01T02:19:18.666Z,36.67
2019-05-01T02:21:47.355Z,39.77
2019-05-01T02:24:16.192Z,39.80
2019-05-01T02:26:52.111Z,40.37
2019-05-01T02:29:22.743Z,40.70
2019-05-01T02:31:53.462Z,40.57
2019-05-01T02:34:24.110Z,41.77
2019-05-01T02:36:54.632Z,41.30
2019-05-01T02:39:24.438Z,42.27
2019-05-01T02:41:54.751Z,40.80
2019-05-01T02:44:32.141Z,44.20
2019-05-01T02:47:03.836Z,43.23
2019-05-01T02:49:41.322Z,43.20
2019-05-01T02:52:11.926Z,45.07
2019-05-01T02:54:43.655Z,45.83
2019-05-01T02:57:18.710Z,45.40
2019-05-01T02:59:50.464Z,47.67
2019-05-01T03:02:22.462Z,46.77
2019-05-01T03:04:52.354Z,47.07
2019-05-01T03:07:22.721Z,48.17
2019-05-01T03:09:52.158Z,43.00
2019-05-01T03:12:23.321Z,44.73
2019-05-01T03:14:53.598Z,42.10
2019-05-01T03:17:41.045Z,40.53
2019-05-01T03:20:27.083Z,40.83
2019-05-01T03:23:13.479Z,40.67
2019-05-01T03:25:43.184Z,37.23
2019-05-01T03:28:12.803Z,36.83
2019-05-01T03:30:41.562Z,37.27
2019-05-01T03:33:10.365Z,37.27
2019-05-01T03:35:39.276Z,38.43
2019-05-01T03:38:08.387Z,37.07
2019-05-01T03:40:37.363Z,36.57
2019-05-01T03:43:06.352Z,35.17
2019-05-01T03:45:35.443Z,37.93
2019-05-01T03:48:04.331Z,36.40
2019-05-01T03:50:33.102Z,36.30
2019-05-01T03:53:02.615Z,37.47
2019-05-01T03:55:31.574Z,35.20
2019-05-01T03:58:00.469Z,35.23
2019-05-01T04:00:40.035Z,34.27
2019-05-01T04:03:22.863Z,34.33
2019-05-01T04:05:51.985Z,33.13
2019-05-01T04:08:20.726Z,32.60
2019-05-01T04:10:49.633Z,34.53
2019-05-01T04:13:18.395Z,34.23
2019-05-01T04:15:47.295Z,35.70
2019-05-01T04:18:16.598Z,35.03
2019-05-01T04:20:45.792Z,36.10
2019-05-01T04:23:14.864Z,36.10
2019-05-01T04:25:43.757Z,34.43
2019-05-01T04:28:30.731Z,35.17
2019-05-01T04:31:17.407Z,34.37
2019-05-01T04:33:48.143Z,33.53
2019-05-01T04:36:21.321Z,34.20
2019-05-01T04:38:50.243Z,34.63
2019-05-01T04:41:19.131Z,32.60
2019-05-01T04:43:47.937Z,34.57
2019-05-01T04:46:16.738Z,31.20
2019-05-01T04:48:45.572Z,32.93
2019-05-01T04:51:14.561Z,32.13
2019-05-01T04:53:43.345Z,31.43
2019-05-01T04:56:30.063Z,30.00
2019-05-01T04:58:59.470Z,33.07
2019-05-01T05:01:29.959Z,30.37
2019-05-01T05:03:59.340Z,31.33
2019-05-01T05:06:28.188Z,31.77
2019-05-01T05:08:57.597Z,31.27
2019-05-01T05:11:30.808Z,30.87
2019-05-01T05:14:17.338Z,31.20
2019-05-01T05:16:50.497Z,30.10
2019-05-01T05:19:19.243Z,31.10
2019-05-01T05:21:48.678Z,32.30
2019-05-01T05:24:17.874Z,30.87
2019-05-01T05:26:46.864Z,29.83
2019-05-01T05:29:17.223Z,29.37
2019-05-01T05:31:46.701Z,26.90
2019-05-01T05:34:18.216Z,27.77
2019-05-01T05:36:49.468Z,27.23
2019-05-01T05:39:26.674Z,27.07
2019-05-01T05:41:57.001Z,28.90
2019-05-01T05:44:25.982Z,28.53
2019-05-01T05:46:54.797Z,28.43
2019-05-01T05:49:23.610Z,27.60
2019-05-01T05:51:55.428Z,25.60
2019-05-01T05:54:32.448Z,26.53
2019-05-01T05:57:21.549Z,25.47
2019-05-01T05:59:53.681Z,25.30
2019-05-01T06:02:35.170Z,25.80
2019-05-01T06:05:07.275Z,24.87
2019-05-01T06:07:56.717Z,23.60
2019-05-01T06:10:31.144Z,22.83
2019-05-01T06:13:03.291Z,25.17
2019-05-01T06:15:41.182Z,25.67
2019-05-01T06:18:11.585Z,23.77
2019-05-01T06:20:45.182Z,23.77
2019-05-01T06:23:20.657Z,24.60
2019-05-01T06:26:02.289Z,23.40
2019-05-01T06:28:30.466Z,24.73
2019-05-01T06:31:23.213Z,23.80
2019-05-01T06:33:53.092Z,24.27
2019-05-01T06:36:20.041Z,24.13
2019-05-01T06:38:49.238Z,24.70
2019-05-01T06:41:19.283Z,23.37
2019-05-01T06:43:56.880Z,22.57
2019-05-01T06:46:35.482Z,22.80
2019-05-01T06:49:29.115Z,23.17
2019-05-01T06:52:02.351Z,24.57
2019-05-01T06:54:32.359Z,21.50
2019-05-01T06:57:03.495Z,22.63
2019-05-01T06:59:33.519Z,23.07
2019-05-01T07:02:02.873Z,24.47
2019-05-01T07:04:38.134Z,25.10
2019-05-01T07:07:06.674Z,23.80
2019-05-01T07:09:35.783Z,23.23
2019-05-01T07:12:07.237Z,23.53
2019-05-01T07:14:36.550Z,21.13
2019-05-01T07:17:08.933Z,21.77
2019-05-01T07:19:52.965Z,21.57
2019-05-01T07:22:21.947Z,21.87
2019-05-01T07:24:50.936Z,20.93
2019-05-01T07:27:23.914Z,21.17
2019-05-01T07:29:52.014Z,19.47
2019-05-01T07:32:21.133Z,20.70
2019-05-01T07:34:49.917Z,20.03
2019-05-01T07:37:20.748Z,20.20
2019-05-01T07:39:51.772Z,20.77
2019-05-01T07:42:28.457Z,20.47
2019-05-01T07:45:03.797Z,20.87
2019-05-01T07:47:42.875Z,19.57
2019-05-01T07:50:12.935Z,20.53
2019-05-01T07:52:42.382Z,20.00
2019-05-01T07:55:13.020Z,21.23
2019-05-01T07:57:44.434Z,22.17
2019-05-01T08:00:23.737Z,21.93
2019-05-01T08:02:52.454Z,21.43
2019-05-01T08:05:21.237Z,23.03
2019-05-01T08:07:50.028Z,23.30
2019-05-01T08:10:20.943Z,24.07
2019-05-01T08:12:49.181Z,24.47
2019-05-01T08:15:17.972Z,23.53
2019-05-01T08:17:48.807Z,24.03
2019-05-01T08:20:22.138Z,25.50
2019-05-01T08:22:50.930Z,26.37
2019-05-01T08:25:19.695Z,24.63
2019-05-01T08:27:50.934Z,26.57
2019-05-01T08:30:37.471Z,27.47
2019-05-01T08:33:14.703Z,26.13
2019-05-01T08:35:43.990Z,26.27
2019-05-01T08:38:12.688Z,27.03
2019-05-01T08:40:41.481Z,26.93
2019-05-01T08:43:13.660Z,24.97
2019-05-01T08:45:58.343Z,26.33
2019-05-01T08:48:35.890Z,25.80
2019-05-01T08:51:02.463Z,26.70
2019-05-01T08:53:31.249Z,28.30
2019-05-01T08:55:59.961Z,27.20
2019-05-01T08:58:28.750Z,28.40
2019-05-01T09:00:57.531Z,27.30
2019-05-01T09:03:26.507Z,28.33
2019-05-01T09:05:57.557Z,27.23
2019-05-01T09:08:27.069Z,27.87
2019-05-01T09:11:00.268Z,27.53
2019-05-01T09:13:26.746Z,29.53
2019-05-01T09:15:55.471Z,27.83
2019-05-01T09:18:24.150Z,28.23
2019-05-01T09:20:54.458Z,28.07
2019-05-01T09:23:23.249Z,28.87
2019-05-01T09:25:53.668Z,27.77
2019-05-01T09:28:24.110Z,27.10
2019-05-01T09:31:01.281Z,28.50
2019-05-01T09:33:30.763Z,29.33
2019-05-01T09:35:57.860Z,28.90
2019-05-01T09:38:26.658Z,29.60
2019-05-01T09:40:55.371Z,28.57
2019-05-01T09:43:24.157Z,28.53
2019-05-01T09:45:52.933Z,29.47
2019-05-01T09:48:21.795Z,29.37
2019-05-01T09:50:52.183Z,31.47
2019-05-01T09:53:35.485Z,29.67
2019-05-01T09:56:07.771Z,29.43
2019-05-01T09:58:36.456Z,28.10
2019-05-01T10:01:07.698Z,27.03
2019-05-01T10:03:36.434Z,26.33
2019-05-01T10:06:05.655Z,26.70
2019-05-01T10:08:34.777Z,26.57
2019-05-01T10:11:06.751Z,27.23
2019-05-01T10:13:35.399Z,26.23
2019-05-01T10:16:04.313Z,25.83
2019-05-01T10:18:33.021Z,27.23
2019-05-01T10:21:01.684Z,25.93
2019-05-01T10:23:30.303Z,27.30
2019-05-01T10:26:00.599Z,26.83
2019-05-01T10:28:31.009Z,26.47
2019-05-01T10:31:01.556Z,25.73
2019-05-01T10:33:49.706Z,26.47
2019-05-01T10:36:22.793Z,26.93
2019-05-01T10:38:51.887Z,28.53
2019-05-01T10:41:20.627Z,26.23
2019-05-01T10:43:49.286Z,26.33
2019-05-01T10:46:17.998Z,24.77
2019-05-01T10:48:46.814Z,24.40
2019-05-01T10:51:15.580Z,23.87
2019-05-01T10:53:44.362Z,24.90
2019-05-01T10:56:13.088Z,24.80
2019-05-01T10:58:41.813Z,23.93
2019-05-01T11:01:12.215Z,26.23
2019-05-01T11:03:42.685Z,24.70
2019-05-01T11:06:11.521Z,27.17
2019-05-01T11:08:40.429Z,23.23
2019-05-01T11:11:09.013Z,22.90
2019-05-01T11:13:37.704Z,24.47
2019-05-01T11:16:14.453Z,32.00
2019-05-01T11:18:43.167Z,23.90
2019-05-01T11:21:11.938Z,23.77
2019-05-01T11:23:40.658Z,23.20
2019-05-01T11:26:09.426Z,24.50
2019-05-01T11:28:38.254Z,24.10
2019-05-01T11:31:08.687Z,24.67
2019-05-01T11:33:50.820Z,24.70
2019-05-01T11:36:24.572Z,24.80
2019-05-01T11:38:57.700Z,23.90
2019-05-01T11:41:37.143Z,24.63
2019-05-01T11:44:05.920Z,24.87
2019-05-01T11:46:34.715Z,24.47
2019-05-01T11:49:03.503Z,24.87
2019-05-01T11:51:32.241Z,24.23
2019-05-01T11:54:02.294Z,23.97
2019-05-01T11:56:31.133Z,24.03
2019-05-01T11:58:59.850Z,25.00
2019-05-01T12:01:28.644Z,24.17
2019-05-01T12:03:57.502Z,23.20
2019-05-01T12:06:26.314Z,25.97
2019-05-01T12:08:55.036Z,23.80
2019-05-01T12:11:25.371Z,24.93
2019-05-01T12:13:54.190Z,23.90
2019-05-01T12:16:26.969Z,25.13
2019-05-01T12:18:55.696Z,23.17
2019-05-01T12:21:24.396Z,23.20
2019-05-01T12:23:53.052Z,23.60
2019-05-01T12:26:21.748Z,24.27
2019-05-01T12:28:50.682Z,23.20
2019-05-01T12:31:19.346Z,23.10
2019-05-01T12:33:48.132Z,22.63
2019-05-01T12:36:16.986Z,23.53
2019-05-01T12:38:45.741Z,23.27
2019-05-01T12:41:18.831Z,23.63
2019-05-01T12:43:47.500Z,23.47
2019-05-01T12:46:17.820Z,23.83
2019-05-01T12:48:46.674Z,22.20
2019-05-01T12:51:15.441Z,22.77
2019-05-01T12:53:54.821Z,22.13
2019-05-01T12:56:41.046Z,25.50
2019-05-01T12:59:09.824Z,24.97
2019-05-01T13:01:38.565Z,21.87
2019-05-01T13:04:07.346Z,24.23
2019-05-01T13:06:48.635Z,24.13
2019-05-01T13:09:08.117Z,24.53
2019-05-01T13:11:36.918Z,26.43
2019-05-01T13:14:05.680Z,27.37
2019-05-01T13:16:34.506Z,26.87
2019-05-01T13:19:03.254Z,25.93
2019-05-01T13:21:32.036Z,25.40
2019-05-01T13:24:00.863Z,26.33
2019-05-01T13:26:40.484Z,23.13
2019-05-01T13:29:13.832Z,24.97
2019-05-01T13:31:53.303Z,24.13
2019-05-01T13:34:24.999Z,24.17
2019-05-01T13:37:02.938Z,23.93
2019-05-01T13:39:24.211Z,24.93
2019-05-01T13:41:53.428Z,23.50
2019-05-01T13:44:22.341Z,25.40
2019-05-01T13:46:51.041Z,24.40
2019-05-01T13:49:19.701Z,22.70
2019-05-01T13:51:48.463Z,23.30
2019-05-01T13:54:17.274Z,24.97
2019-05-01T13:56:46.147Z,25.20
2019-05-01T13:59:15.358Z,24.50
2019-05-01T14:01:44.115Z,25.57
2019-05-01T14:04:13.505Z,24.97
2019-05-01T14:06:42.170Z,26.40
2019-05-01T14:09:12.593Z,24.47
2019-05-01T14:11:41.210Z,23.67
2019-05-01T14:14:09.952Z,23.20
2019-05-01T14:16:38.757Z,22.80
2019-05-01T14:19:07.520Z,25.30
2019-05-01T14:21:37.956Z,24.47
2019-05-01T14:24:20.416Z,25.70
2019-05-01T14:26:57.951Z,26.20
2019-05-01T14:29:26.637Z,26.10
2019-05-01T14:31:55.388Z,26.23
2019-05-01T14:34:24.338Z,27.43
2019-05-01T14:36:53.126Z,24.77
2019-05-01T14:39:21.982Z,27.27
2019-05-01T14:41:51.899Z,25.90
2019-05-01T14:44:20.604Z,26.67
2019-05-01T14:46:49.469Z,26.97
2019-05-01T14:49:18.231Z,26.47
2019-05-01T14:51:46.937Z,25.93
2019-05-01T14:54:15.739Z,32.73
2019-05-01T14:56:44.464Z,43.77
2019-05-01T14:59:13.258Z,27.10
2019-05-01T15:01:42.146Z,27.43
2019-05-01T15:04:10.812Z,24.60
2019-05-01T15:06:39.521Z,25.03
2019-05-01T15:09:08.589Z,25.87
2019-05-01T15:11:37.918Z,26.03
2019-05-01T15:14:08.360Z,26.53
2019-05-01T15:16:38.765Z,24.10
2019-05-01T15:19:14.736Z,24.30
2019-05-01T15:21:46.067Z,24.60
2019-05-01T15:24:14.728Z,25.40
2019-05-01T15:26:43.490Z,24.97
2019-05-01T15:29:12.373Z,24.67
2019-05-01T15:31:41.279Z,24.87
2019-05-01T15:34:10.325Z,24.33
2019-05-01T15:36:39.063Z,24.73
2019-05-01T15:39:11.097Z,22.53
2019-05-01T15:41:57.563Z,23.73
2019-05-01T15:44:28.202Z,23.10
2019-05-01T15:46:56.937Z,24.90
2019-05-01T15:49:25.773Z,23.63
2019-05-01T15:51:54.558Z,23.63
2019-05-01T15:54:23.277Z,24.43
2019-05-01T15:56:52.039Z,24.57
2019-05-01T15:59:21.091Z,24.13
2019-05-01T16:01:49.828Z,25.73
2019-05-01T16:04:18.553Z,24.87
2019-05-01T16:06:47.442Z,25.53
2019-05-01T16:09:16.650Z,24.75
2019-05-01T16:12:03.335Z,24.50
2019-05-01T16:14:32.195Z,24.10
2019-05-01T16:17:01.000Z,24.17
2019-05-01T16:19:29.661Z,24.13
2019-05-01T16:21:58.397Z,24.37
2019-05-01T16:24:27.169Z,24.17
2019-05-01T16:26:55.842Z,23.83
2019-05-01T16:29:24.466Z,24.40
2019-05-01T16:31:53.289Z,24.57
2019-05-01T16:34:21.939Z,24.00
2019-05-01T16:36:50.700Z,24.13
2019-05-01T16:39:26.927Z,25.83
2019-05-01T16:41:55.729Z,24.10
2019-05-01T16:44:24.493Z,25.90
2019-05-01T16:46:53.233Z,24.20
2019-05-01T16:49:21.918Z,24.43
2019-05-01T16:51:50.661Z,25.43
2019-05-01T16:54:19.405Z,26.20
2019-05-01T16:56:48.158Z,25.20
2019-05-01T16:59:16.843Z,25.43
2019-05-01T17:01:47.374Z,25.90
2019-05-01T17:04:26.289Z,24.40
2019-05-01T17:07:12.669Z,24.80
2019-05-01T17:09:58.035Z,25.03
2019-05-01T17:12:28.839Z,25.03
2019-05-01T17:14:57.629Z,25.77
2019-05-01T17:17:26.966Z,25.33
2019-05-01T17:19:55.782Z,25.73
2019-05-01T17:22:24.495Z,25.87
2019-05-01T17:24:53.316Z,25.40
2019-05-01T17:27:22.118Z,25.17
2019-05-01T17:29:50.911Z,24.50
2019-05-01T17:32:19.607Z,26.23
2019-05-01T17:34:48.612Z,25.13
2019-05-01T17:37:17.411Z,27.37
2019-05-01T17:39:46.221Z,26.77
2019-05-01T17:42:14.933Z,27.10
2019-05-01T17:44:43.705Z,26.90
2019-05-01T17:47:12.495Z,26.00
2019-05-01T17:49:44.832Z,26.90
2019-05-01T17:52:11.550Z,27.47
2019-05-01T17:54:40.316Z,26.83
2019-05-01T17:57:08.967Z,28.80
2019-05-01T17:59:37.744Z,26.40
2019-05-01T18:02:24.398Z,26.70
2019-05-01T18:04:54.726Z,27.27
2019-05-01T18:07:23.736Z,26.13
2019-05-01T18:09:55.708Z,27.30
2019-05-01T18:12:23.446Z,26.60
2019-05-01T18:14:53.465Z,27.27
2019-05-01T18:17:25.099Z,28.03
2019-05-01T18:19:53.897Z,26.23
2019-05-01T18:22:26.896Z,26.80
2019-05-01T18:24:59.700Z,25.70
2019-05-01T18:27:39.017Z,26.93
2019-05-01T18:30:10.396Z,27.10
2019-05-01T18:32:41.501Z,26.40
2019-05-01T18:35:14.064Z,27.87
2019-05-01T18:37:52.860Z,28.23
2019-05-01T18:40:29.197Z,27.77
2019-05-01T18:42:57.975Z,27.03
2019-05-01T18:45:47.587Z,27.43
2019-05-01T18:48:16.683Z,27.63
2019-05-01T18:50:49.309Z,27.27
2019-05-01T18:53:16.312Z,25.87
2019-05-01T18:55:45.073Z,25.47
2019-05-01T18:58:15.335Z,27.53
2019-05-01T19:00:44.183Z,27.17
2019-05-01T19:03:12.992Z,26.37
2019-05-01T19:05:43.189Z,25.57
2019-05-01T19:08:12.177Z,26.07
2019-05-01T19:10:41.030Z,27.60
2019-05-01T19:13:10.188Z,26.07
2019-05-01T19:15:39.065Z,25.73
2019-05-01T19:18:07.960Z,26.17
2019-05-01T19:20:36.729Z,23.63
2019-05-01T19:23:05.685Z,23.40
2019-05-01T19:25:34.492Z,24.43
2019-05-01T19:28:04.643Z,22.63
2019-05-01T19:30:33.444Z,23.33
2019-05-01T19:33:02.128Z,22.47
2019-05-01T19:35:34.048Z,21.50
2019-05-01T19:38:01.307Z,22.00
2019-05-01T19:40:32.571Z,21.53
2019-05-01T19:43:00.584Z,20.33
2019-05-01T19:45:29.397Z,22.23
2019-05-01T19:47:58.146Z,21.43
2019-05-01T19:50:26.925Z,19.70
2019-05-01T19:52:55.691Z,19.23
2019-05-01T19:55:24.429Z,19.23
2019-05-01T19:57:53.204Z,18.17
2019-05-01T20:00:27.777Z,18.67
2019-05-01T20:02:59.053Z,19.17
2019-05-01T20:05:27.517Z,18.10
2019-05-01T20:07:57.909Z,18.07
2019-05-01T20:10:26.681Z,17.17
2019-05-01T20:12:55.521Z,18.63
2019-05-01T20:15:26.567Z,17.37
2019-05-01T20:17:55.274Z,17.20
2019-05-01T20:20:24.058Z,16.33
2019-05-01T20:22:55.142Z,19.10
2019-05-01T20:25:23.124Z,17.63
2019-05-01T20:27:53.209Z,17.60
2019-05-01T20:30:22.104Z,17.23
2019-05-01T20:32:50.890Z,16.90
2019-05-01T20:35:23.966Z,17.70
2019-05-01T20:37:50.059Z,17.60
2019-05-01T20:40:18.859Z,18.23
2019-05-01T20:42:47.626Z,17.10
2019-05-01T20:45:18.344Z,18.83
2019-05-01T20:47:48.184Z,18.10
2019-05-01T20:50:17.251Z,16.70
2019-05-01T20:52:45.950Z,18.60
2019-05-01T20:55:15.234Z,18.03
2019-05-01T20:57:45.524Z,18.43
2019-05-01T21:00:16.681Z,18.20
2019-05-01T21:02:44.844Z,18.20
2019-05-01T21:05:15.266Z,18.67
2019-05-01T21:07:45.699Z,19.03
2019-05-01T21:10:24.430Z,19.00
2019-05-01T21:12:44.832Z,20.07
2019-05-01T21:15:13.749Z,19.97
2019-05-01T21:17:44.197Z,20.47
2019-05-01T21:20:13.430Z,20.87
2019-05-01T21:22:43.512Z,21.40
2019-05-01T21:25:13.805Z,21.60
2019-05-01T21:27:44.408Z,20.83
2019-05-01T21:30:13.851Z,20.67
2019-05-01T21:32:44.377Z,20.93
2019-05-01T21:35:13.742Z,21.53
2019-05-01T21:37:42.505Z,22.17
2019-05-01T21:40:12.855Z,22.03
2019-05-01T21:42:42.873Z,20.93
2019-05-01T21:45:12.719Z,22.00
2019-05-01T21:47:42.633Z,21.07
2019-05-01T21:50:13.188Z,21.33
2019-05-01T21:52:43.653Z,20.87
2019-05-01T21:55:12.242Z,20.13
2019-05-01T21:57:40.967Z,21.37
2019-05-01T22:00:10.136Z,22.83
2019-05-01T22:02:41.684Z,23.10
2019-05-01T22:05:09.557Z,22.03
2019-05-01T22:07:38.316Z,22.43
2019-05-01T22:10:08.206Z,22.67
2019-05-01T22:12:36.908Z,22.50
2019-05-01T22:15:11.108Z,22.73
2019-05-01T22:17:50.071Z,22.13
2019-05-01T22:20:20.382Z,24.10
2019-05-01T22:22:53.859Z,24.47
2019-05-01T22:25:27.201Z,23.63
2019-05-01T22:28:00.382Z,23.60
2019-05-01T22:30:42.332Z,23.23
2019-05-01T22:33:09.881Z,24.27
2019-05-01T22:35:40.308Z,24.60
2019-05-01T22:38:09.012Z,22.83
2019-05-01T22:41:05.067Z,23.20
2019-05-01T22:43:21.969Z,25.37
2019-05-01T22:45:50.770Z,25.73
2019-05-01T22:48:19.575Z,23.97
2019-05-01T22:50:49.998Z,24.43
2019-05-01T22:53:18.729Z,24.60
2019-05-01T22:55:47.417Z,24.10
2019-05-01T22:58:16.055Z,24.20
2019-05-01T23:00:52.193Z,26.07
2019-05-01T23:03:22.624Z,25.00
2019-05-01T23:05:51.388Z,25.60
2019-05-01T23:08:20.204Z,25.57
2019-05-01T23:10:48.982Z,26.40
2019-05-01T23:13:17.771Z,26.17
2019-05-01T23:15:46.728Z,25.83
2019-05-01T23:18:17.106Z,25.20
2019-05-01T23:20:45.792Z,24.87
2019-05-01T23:23:14.556Z,25.53
2019-05-01T23:25:43.284Z,26.00
2019-05-01T23:28:11.993Z,26.47
2019-05-01T23:30:40.867Z,26.20
2019-05-01T23:33:09.638Z,25.17
2019-05-01T23:35:38.427Z,26.67
2019-05-01T23:38:07.173Z,27.03
2019-05-01T23:40:36.138Z,28.13
2019-05-01T23:43:04.961Z,28.43
2019-05-01T23:45:33.711Z,28.47
2019-05-01T23:48:02.578Z,29.87
2019-05-01T23:50:31.262Z,27.30
2019-05-01T23:53:00.050Z,28.53
2019-05-01T23:55:28.742Z,28.67
2019-05-01T23:57:57.525Z,28.77
